sensor_id;sensor_type;location;lat;lon;timestamp;temperature;humidity
53599;DHT22;39485;45.702;11.364;2023-05-14T00:01:33;11.60;99.90
53599;DHT22;39485;45.702;11.364;2023-05-14T00:03:59;11.60;99.90
53599;DHT22;39485;45.702;11.364;2023-05-14T00:06:24;11.70;99.90
53599;DHT22;39485;45.702;11.364;2023-05-14T00:08:50;11.70;99.90
53599;DHT22;39485;45.702;11.364;2023-05-14T00:11:16;11.70;99.90
53599;DHT22;39485;45.702;11.364;2023-05-14T00:13:41;11.60;99.90
53599;DHT22;39485;45.702;11.364;2023-05-14T00:16:07;11.60;99.90
53599;DHT22;39485;45.702;11.364;2023-05-14T00:18:33;11.60;99.90
53599;DHT22;39485;45.702;11.364;2023-05-14T00:20:58;11.60;99.90
53599;DHT22;39485;45.702;11.364;2023-05-14T00:23:24;11.60;99.90
53599;DHT22;39485;45.702;11.364;2023-05-14T00:25:50;11.60;99.90
53599;DHT22;39485;45.702;11.364;2023-05-14T00:28:15;11.70;99.90
53599;DHT22;39485;45.702;11.364;2023-05-14T00:30:41;11.60;99.90
53599;DHT22;39485;45.702;11.364;2023-05-14T00:33:07;11.60;99.90
53599;DHT22;39485;45.702;11.364;2023-05-14T00:35:32;11.60;99.90
53599;DHT22;39485;45.702;11.364;2023-05-14T00:38:02;11.60;99.90
53599;DHT22;39485;45.702;11.364;2023-05-14T00:40:28;11.60;99.90
53599;DHT22;39485;45.702;11.364;2023-05-14T00:42:55;11.60;99.90
53599;DHT22;39485;45.702;11.364;2023-05-14T00:45:20;11.60;99.90
53599;DHT22;39485;45.702;11.364;2023-05-14T00:47:50;11.60;99.90
53599;DHT22;39485;45.702;11.364;2023-05-14T00:50:15;11.60;99.90
53599;DHT22;39485;45.702;11.364;2023-05-14T00:52:42;11.60;99.90
53599;DHT22;39485;45.702;11.364;2023-05-14T00:55:08;11.60;99.90
53599;DHT22;39485;45.702;11.364;2023-05-14T00:57:36;11.60;99.90
53599;DHT22;39485;45.702;11.364;2023-05-14T01:00:03;11.60;99.90
53599;DHT22;39485;45.702;11.364;2023-05-14T01:02:29;11.60;99.90
53599;DHT22;39485;45.702;11.364;2023-05-14T01:04:55;11.60;99.90
53599;DHT22;39485;45.702;11.364;2023-05-14T01:10:07;11.60;99.90
53599;DHT22;39485;45.702;11.364;2023-05-14T01:12:49;11.60;99.90
53599;DHT22;39485;45.702;11.364;2023-05-14T01:15:18;11.60;99.90
53599;DHT22;39485;45.702;11.364;2023-05-14T01:17:58;11.50;99.90
53599;DHT22;39485;45.702;11.364;2023-05-14T01:20:25;11.60;99.90
53599;DHT22;39485;45.702;11.364;2023-05-14T01:22:51;11.50;99.90
53599;DHT22;39485;45.702;11.364;2023-05-14T01:25:17;11.50;99.90
53599;DHT22;39485;45.702;11.364;2023-05-14T01:28:26;11.50;99.90
53599;DHT22;39485;45.702;11.364;2023-05-14T01:30:58;11.50;99.90
53599;DHT22;39485;45.702;11.364;2023-05-14T01:33:28;11.50;99.90
53599;DHT22;39485;45.702;11.364;2023-05-14T01:35:55;11.50;99.90
53599;DHT22;39485;45.702;11.364;2023-05-14T01:38:22;11.50;99.90
53599;DHT22;39485;45.702;11.364;2023-05-14T01:40:49;11.50;99.90
53599;DHT22;39485;45.702;11.364;2023-05-14T01:43:15;11.40;99.90
53599;DHT22;39485;45.702;11.364;2023-05-14T01:45:42;11.40;99.90
53599;DHT22;39485;45.702;11.364;2023-05-14T01:48:08;11.40;99.90
53599;DHT22;39485;45.702;11.364;2023-05-14T01:50:34;11.40;99.90
53599;DHT22;39485;45.702;11.364;2023-05-14T01:52:59;11.40;99.90
53599;DHT22;39485;45.702;11.364;2023-05-14T01:55:25;11.30;99.90
53599;DHT22;39485;45.702;11.364;2023-05-14T01:57:51;11.40;99.90
53599;DHT22;39485;45.702;11.364;2023-05-14T02:00:18;11.30;99.90
53599;DHT22;39485;45.702;11.364;2023-05-14T02:02:43;11.30;99.90
53599;DHT22;39485;45.702;11.364;2023-05-14T02:05:10;11.30;99.90
53599;DHT22;39485;45.702;11.364;2023-05-14T02:07:36;11.30;99.90
53599;DHT22;39485;45.702;11.364;2023-05-14T02:10:02;11.30;99.90
53599;DHT22;39485;45.702;11.364;2023-05-14T02:12:28;11.30;99.90
53599;DHT22;39485;45.702;11.364;2023-05-14T02:14:53;11.30;99.90
53599;DHT22;39485;45.702;11.364;2023-05-14T02:17:23;11.30;99.90
53599;DHT22;39485;45.702;11.364;2023-05-14T02:19:49;11.30;99.90
53599;DHT22;39485;45.702;11.364;2023-05-14T02:22:14;11.30;99.90
53599;DHT22;39485;45.702;11.364;2023-05-14T02:24:40;11.30;99.90
53599;DHT22;39485;45.702;11.364;2023-05-14T02:27:06;11.30;99.90
53599;DHT22;39485;45.702;11.364;2023-05-14T02:29:31;11.30;99.90
53599;DHT22;39485;45.702;11.364;2023-05-14T02:31:57;11.30;99.90
53599;DHT22;39485;45.702;11.364;2023-05-14T02:34:24;11.30;99.90
53599;DHT22;39485;45.702;11.364;2023-05-14T02:36:49;11.30;99.90
53599;DHT22;39485;45.702;11.364;2023-05-14T02:39:15;11.20;99.90
53599;DHT22;39485;45.702;11.364;2023-05-14T02:41:41;11.20;99.90
53599;DHT22;39485;45.702;11.364;2023-05-14T02:44:06;11.20;99.90
53599;DHT22;39485;45.702;11.364;2023-05-14T02:46:32;11.20;99.90
53599;DHT22;39485;45.702;11.364;2023-05-14T02:49:01;11.20;99.90
53599;DHT22;39485;45.702;11.364;2023-05-14T02:51:27;11.20;99.90
53599;DHT22;39485;45.702;11.364;2023-05-14T02:53:53;11.20;99.90
53599;DHT22;39485;45.702;11.364;2023-05-14T02:56:18;11.20;99.90
53599;DHT22;39485;45.702;11.364;2023-05-14T02:58:44;11.20;99.90
53599;DHT22;39485;45.702;11.364;2023-05-14T03:01:10;11.20;99.90
53599;DHT22;39485;45.702;11.364;2023-05-14T03:03:35;11.20;99.90
53599;DHT22;39485;45.702;11.364;2023-05-14T03:06:03;11.20;99.90
53599;DHT22;39485;45.702;11.364;2023-05-14T03:08:28;11.30;99.90
53599;DHT22;39485;45.702;11.364;2023-05-14T03:10:54;11.20;99.90
53599;DHT22;39485;45.702;11.364;2023-05-14T03:13:20;11.20;99.90
53599;DHT22;39485;45.702;11.364;2023-05-14T03:15:46;11.20;99.90
53599;DHT22;39485;45.702;11.364;2023-05-14T03:18:12;11.20;99.90
53599;DHT22;39485;45.702;11.364;2023-05-14T03:20:38;11.20;99.90
53599;DHT22;39485;45.702;11.364;2023-05-14T03:23:04;11.20;99.90
53599;DHT22;39485;45.702;11.364;2023-05-14T03:25:30;11.20;99.90
53599;DHT22;39485;45.702;11.364;2023-05-14T03:27:55;11.20;99.90
53599;DHT22;39485;45.702;11.364;2023-05-14T03:30:21;11.20;99.90
53599;DHT22;39485;45.702;11.364;2023-05-14T03:32:46;11.20;99.90
53599;DHT22;39485;45.702;11.364;2023-05-14T03:35:12;11.20;99.90
53599;DHT22;39485;45.702;11.364;2023-05-14T03:37:38;11.20;99.90
53599;DHT22;39485;45.702;11.364;2023-05-14T03:40:04;11.20;99.90
53599;DHT22;39485;45.702;11.364;2023-05-14T03:42:30;11.20;99.90
53599;DHT22;39485;45.702;11.364;2023-05-14T03:44:55;11.20;99.90
53599;DHT22;39485;45.702;11.364;2023-05-14T03:47:21;11.20;99.90
53599;DHT22;39485;45.702;11.364;2023-05-14T03:49:47;11.20;99.90
53599;DHT22;39485;45.702;11.364;2023-05-14T03:52:12;11.10;99.90
53599;DHT22;39485;45.702;11.364;2023-05-14T03:54:38;11.10;99.90
53599;DHT22;39485;45.702;11.364;2023-05-14T03:57:05;11.10;99.90
53599;DHT22;39485;45.702;11.364;2023-05-14T03:59:31;11.20;99.90
53599;DHT22;39485;45.702;11.364;2023-05-14T04:01:57;11.10;99.90
53599;DHT22;39485;45.702;11.364;2023-05-14T04:04:22;11.10;99.90
53599;DHT22;39485;45.702;11.364;2023-05-14T04:06:48;11.10;99.90
53599;DHT22;39485;45.702;11.364;2023-05-14T04:09:14;11.20;99.90
53599;DHT22;39485;45.702;11.364;2023-05-14T04:11:39;11.20;99.90
53599;DHT22;39485;45.702;11.364;2023-05-14T04:14:05;11.20;99.90
53599;DHT22;39485;45.702;11.364;2023-05-14T04:16:34;11.20;99.90
53599;DHT22;39485;45.702;11.364;2023-05-14T04:19:01;11.20;99.90
53599;DHT22;39485;45.702;11.364;2023-05-14T04:21:28;11.20;99.90
53599;DHT22;39485;45.702;11.364;2023-05-14T04:23:53;11.30;99.90
53599;DHT22;39485;45.702;11.364;2023-05-14T04:26:19;11.30;99.90
53599;DHT22;39485;45.702;11.364;2023-05-14T04:28:45;11.30;99.90
53599;DHT22;39485;45.702;11.364;2023-05-14T04:31:11;11.30;99.90
53599;DHT22;39485;45.702;11.364;2023-05-14T04:33:37;11.30;99.90
53599;DHT22;39485;45.702;11.364;2023-05-14T04:36:03;11.30;99.90
53599;DHT22;39485;45.702;11.364;2023-05-14T04:38:30;11.30;99.90
53599;DHT22;39485;45.702;11.364;2023-05-14T04:40:56;11.40;99.90
53599;DHT22;39485;45.702;11.364;2023-05-14T04:43:22;11.40;99.90
53599;DHT22;39485;45.702;11.364;2023-05-14T04:45:48;11.50;99.90
53599;DHT22;39485;45.702;11.364;2023-05-14T04:48:14;11.50;99.90
53599;DHT22;39485;45.702;11.364;2023-05-14T04:50:39;11.60;99.90
53599;DHT22;39485;45.702;11.364;2023-05-14T04:53:05;11.60;99.90
53599;DHT22;39485;45.702;11.364;2023-05-14T04:55:30;11.70;99.90
53599;DHT22;39485;45.702;11.364;2023-05-14T04:57:56;11.70;99.90
53599;DHT22;39485;45.702;11.364;2023-05-14T05:00:22;11.80;99.90
53599;DHT22;39485;45.702;11.364;2023-05-14T05:02:47;11.80;99.90
53599;DHT22;39485;45.702;11.364;2023-05-14T05:05:13;11.90;99.90
53599;DHT22;39485;45.702;11.364;2023-05-14T05:07:39;12.00;99.90
53599;DHT22;39485;45.702;11.364;2023-05-14T05:10:05;12.00;99.90
53599;DHT22;39485;45.702;11.364;2023-05-14T05:12:31;12.10;99.90
53599;DHT22;39485;45.702;11.364;2023-05-14T05:15:00;12.20;99.90
53599;DHT22;39485;45.702;11.364;2023-05-14T05:17:25;12.20;99.90
53599;DHT22;39485;45.702;11.364;2023-05-14T05:19:51;12.20;99.90
53599;DHT22;39485;45.702;11.364;2023-05-14T05:22:18;12.20;99.90
53599;DHT22;39485;45.702;11.364;2023-05-14T05:24:44;12.20;99.90
53599;DHT22;39485;45.702;11.364;2023-05-14T05:27:10;12.20;99.90
53599;DHT22;39485;45.702;11.364;2023-05-14T05:29:36;12.20;99.90
53599;DHT22;39485;45.702;11.364;2023-05-14T05:32:01;12.20;99.90
53599;DHT22;39485;45.702;11.364;2023-05-14T05:34:27;12.20;99.90
53599;DHT22;39485;45.702;11.364;2023-05-14T05:36:52;12.20;99.90
53599;DHT22;39485;45.702;11.364;2023-05-14T05:39:18;12.20;99.90
53599;DHT22;39485;45.702;11.364;2023-05-14T05:41:44;12.20;99.90
53599;DHT22;39485;45.702;11.364;2023-05-14T05:44:09;12.30;99.90
53599;DHT22;39485;45.702;11.364;2023-05-14T05:46:35;12.30;99.90
53599;DHT22;39485;45.702;11.364;2023-05-14T05:49:01;12.30;99.90
53599;DHT22;39485;45.702;11.364;2023-05-14T05:51:27;12.30;99.90
53599;DHT22;39485;45.702;11.364;2023-05-14T05:53:52;12.40;99.90
53599;DHT22;39485;45.702;11.364;2023-05-14T05:56:18;12.40;99.90
53599;DHT22;39485;45.702;11.364;2023-05-14T05:58:43;12.50;99.90
53599;DHT22;39485;45.702;11.364;2023-05-14T06:01:09;12.50;99.90
53599;DHT22;39485;45.702;11.364;2023-05-14T06:03:35;12.50;99.90
53599;DHT22;39485;45.702;11.364;2023-05-14T06:06:00;12.50;99.90
53599;DHT22;39485;45.702;11.364;2023-05-14T06:08:27;12.60;99.90
53599;DHT22;39485;45.702;11.364;2023-05-14T06:10:52;12.50;99.90
53599;DHT22;39485;45.702;11.364;2023-05-14T06:13:24;12.60;99.90
53599;DHT22;39485;45.702;11.364;2023-05-14T06:15:50;12.60;99.90
53599;DHT22;39485;45.702;11.364;2023-05-14T06:18:16;12.70;99.90
53599;DHT22;39485;45.702;11.364;2023-05-14T06:20:41;12.60;99.90
53599;DHT22;39485;45.702;11.364;2023-05-14T06:23:10;12.60;99.90
53599;DHT22;39485;45.702;11.364;2023-05-14T06:25:36;12.70;99.90
53599;DHT22;39485;45.702;11.364;2023-05-14T06:28:02;12.70;99.90
53599;DHT22;39485;45.702;11.364;2023-05-14T06:30:27;12.80;99.90
53599;DHT22;39485;45.702;11.364;2023-05-14T06:32:53;12.90;99.90
53599;DHT22;39485;45.702;11.364;2023-05-14T06:35:19;12.90;99.90
53599;DHT22;39485;45.702;11.364;2023-05-14T06:37:44;13.00;99.90
53599;DHT22;39485;45.702;11.364;2023-05-14T06:40:11;13.00;99.90
53599;DHT22;39485;45.702;11.364;2023-05-14T06:42:37;13.10;99.90
53599;DHT22;39485;45.702;11.364;2023-05-14T06:45:04;13.20;99.90
53599;DHT22;39485;45.702;11.364;2023-05-14T06:47:30;13.20;99.90
53599;DHT22;39485;45.702;11.364;2023-05-14T06:49:55;13.30;99.90
53599;DHT22;39485;45.702;11.364;2023-05-14T06:52:23;13.40;99.90
53599;DHT22;39485;45.702;11.364;2023-05-14T06:54:48;13.50;99.90
53599;DHT22;39485;45.702;11.364;2023-05-14T06:57:14;13.50;99.90
53599;DHT22;39485;45.702;11.364;2023-05-14T06:59:40;13.60;99.90
53599;DHT22;39485;45.702;11.364;2023-05-14T07:02:06;13.70;99.90
53599;DHT22;39485;45.702;11.364;2023-05-14T07:04:31;13.70;99.90
53599;DHT22;39485;45.702;11.364;2023-05-14T07:06:57;13.80;99.90
53599;DHT22;39485;45.702;11.364;2023-05-14T07:09:23;13.80;99.90
53599;DHT22;39485;45.702;11.364;2023-05-14T07:11:48;13.80;99.90
53599;DHT22;39485;45.702;11.364;2023-05-14T07:14:14;13.90;99.90
53599;DHT22;39485;45.702;11.364;2023-05-14T07:16:40;13.90;99.90
53599;DHT22;39485;45.702;11.364;2023-05-14T07:19:07;14.00;99.90
53599;DHT22;39485;45.702;11.364;2023-05-14T07:21:34;14.00;99.90
53599;DHT22;39485;45.702;11.364;2023-05-14T07:24:00;14.00;99.90
53599;DHT22;39485;45.702;11.364;2023-05-14T07:26:25;14.00;99.90
53599;DHT22;39485;45.702;11.364;2023-05-14T07:28:51;14.10;99.90
53599;DHT22;39485;45.702;11.364;2023-05-14T07:31:16;14.10;99.90
53599;DHT22;39485;45.702;11.364;2023-05-14T07:33:42;14.10;99.90
53599;DHT22;39485;45.702;11.364;2023-05-14T07:36:08;14.10;99.90
53599;DHT22;39485;45.702;11.364;2023-05-14T07:38:34;14.20;99.90
53599;DHT22;39485;45.702;11.364;2023-05-14T07:40:59;14.20;99.90
53599;DHT22;39485;45.702;11.364;2023-05-14T07:43:25;14.30;99.90
53599;DHT22;39485;45.702;11.364;2023-05-14T07:45:51;14.30;99.90
53599;DHT22;39485;45.702;11.364;2023-05-14T07:48:17;14.40;99.90
53599;DHT22;39485;45.702;11.364;2023-05-14T07:50:42;14.40;99.90
53599;DHT22;39485;45.702;11.364;2023-05-14T07:53:08;14.40;99.90
53599;DHT22;39485;45.702;11.364;2023-05-14T07:55:34;14.40;99.90
53599;DHT22;39485;45.702;11.364;2023-05-14T07:57:59;14.40;99.90
53599;DHT22;39485;45.702;11.364;2023-05-14T08:00:25;14.50;99.90
53599;DHT22;39485;45.702;11.364;2023-05-14T08:02:50;14.50;99.90
53599;DHT22;39485;45.702;11.364;2023-05-14T08:05:16;14.50;99.90
53599;DHT22;39485;45.702;11.364;2023-05-14T08:07:42;14.50;99.90
53599;DHT22;39485;45.702;11.364;2023-05-14T08:10:08;14.50;99.90
53599;DHT22;39485;45.702;11.364;2023-05-14T08:12:34;14.50;99.90
53599;DHT22;39485;45.702;11.364;2023-05-14T08:15:00;14.40;99.90
53599;DHT22;39485;45.702;11.364;2023-05-14T08:17:26;14.50;99.90
53599;DHT22;39485;45.702;11.364;2023-05-14T08:19:52;14.40;99.90
53599;DHT22;39485;45.702;11.364;2023-05-14T08:22:18;14.40;99.90
53599;DHT22;39485;45.702;11.364;2023-05-14T08:24:43;14.40;99.90
53599;DHT22;39485;45.702;11.364;2023-05-14T08:27:09;14.40;99.90
53599;DHT22;39485;45.702;11.364;2023-05-14T08:29:35;14.40;99.90
53599;DHT22;39485;45.702;11.364;2023-05-14T08:32:01;14.50;99.90
53599;DHT22;39485;45.702;11.364;2023-05-14T08:34:27;14.50;99.90
53599;DHT22;39485;45.702;11.364;2023-05-14T08:36:53;14.50;99.90
53599;DHT22;39485;45.702;11.364;2023-05-14T08:39:18;14.50;99.90
53599;DHT22;39485;45.702;11.364;2023-05-14T08:41:44;14.50;99.90
53599;DHT22;39485;45.702;11.364;2023-05-14T08:45:07;14.50;99.90
53599;DHT22;39485;45.702;11.364;2023-05-14T08:47:25;14.50;99.90
53599;DHT22;39485;45.702;11.364;2023-05-14T08:49:58;14.50;99.90
53599;DHT22;39485;45.702;11.364;2023-05-14T08:52:25;14.50;99.90
53599;DHT22;39485;45.702;11.364;2023-05-14T08:54:52;14.50;99.90
53599;DHT22;39485;45.702;11.364;2023-05-14T08:57:19;14.50;99.90
53599;DHT22;39485;45.702;11.364;2023-05-14T08:59:45;14.50;99.90
53599;DHT22;39485;45.702;11.364;2023-05-14T09:02:13;14.50;99.90
53599;DHT22;39485;45.702;11.364;2023-05-14T09:04:39;14.50;99.90
53599;DHT22;39485;45.702;11.364;2023-05-14T09:07:06;14.60;99.90
53599;DHT22;39485;45.702;11.364;2023-05-14T09:09:32;14.60;99.90
53599;DHT22;39485;45.702;11.364;2023-05-14T09:11:58;14.50;99.90
53599;DHT22;39485;45.702;11.364;2023-05-14T09:14:23;14.60;99.90
53599;DHT22;39485;45.702;11.364;2023-05-14T09:16:50;14.60;99.90
53599;DHT22;39485;45.702;11.364;2023-05-14T09:19:17;14.60;99.90
53599;DHT22;39485;45.702;11.364;2023-05-14T09:21:47;14.50;99.90
53599;DHT22;39485;45.702;11.364;2023-05-14T09:24:26;14.50;99.90
53599;DHT22;39485;45.702;11.364;2023-05-14T09:26:57;14.50;99.90
53599;DHT22;39485;45.702;11.364;2023-05-14T09:29:27;14.50;99.90
53599;DHT22;39485;45.702;11.364;2023-05-14T09:31:54;14.50;99.90
53599;DHT22;39485;45.702;11.364;2023-05-14T09:34:28;14.60;99.90
53599;DHT22;39485;45.702;11.364;2023-05-14T09:36:58;14.50;99.90
53599;DHT22;39485;45.702;11.364;2023-05-14T09:39:28;14.50;99.90
53599;DHT22;39485;45.702;11.364;2023-05-14T09:41:54;14.50;99.90
53599;DHT22;39485;45.702;11.364;2023-05-14T09:44:21;14.50;99.90
53599;DHT22;39485;45.702;11.364;2023-05-14T09:46:47;14.50;99.90
53599;DHT22;39485;45.702;11.364;2023-05-14T09:49:14;14.40;99.90
53599;DHT22;39485;45.702;11.364;2023-05-14T09:51:40;14.40;99.90
53599;DHT22;39485;45.702;11.364;2023-05-14T09:54:06;14.40;99.90
53599;DHT22;39485;45.702;11.364;2023-05-14T09:56:33;14.40;99.90
53599;DHT22;39485;45.702;11.364;2023-05-14T09:58:59;14.40;99.90
53599;DHT22;39485;45.702;11.364;2023-05-14T10:01:25;14.40;99.90
53599;DHT22;39485;45.702;11.364;2023-05-14T10:03:53;14.40;99.90
53599;DHT22;39485;45.702;11.364;2023-05-14T10:06:22;14.40;99.90
53599;DHT22;39485;45.702;11.364;2023-05-14T10:08:48;14.50;99.90
53599;DHT22;39485;45.702;11.364;2023-05-14T10:11:24;14.50;99.90
53599;DHT22;39485;45.702;11.364;2023-05-14T10:17:05;14.50;99.90
53599;DHT22;39485;45.702;11.364;2023-05-14T10:19:33;14.50;99.90
53599;DHT22;39485;45.702;11.364;2023-05-14T10:22:07;14.50;99.90
53599;DHT22;39485;45.702;11.364;2023-05-14T10:24:33;14.60;99.90
53599;DHT22;39485;45.702;11.364;2023-05-14T10:27:00;14.60;99.90
53599;DHT22;39485;45.702;11.364;2023-05-14T10:29:36;14.60;99.90
53599;DHT22;39485;45.702;11.364;2023-05-14T10:32:06;14.70;99.90
53599;DHT22;39485;45.702;11.364;2023-05-14T10:37:34;14.70;99.90
53599;DHT22;39485;45.702;11.364;2023-05-14T10:40:04;14.70;99.90
53599;DHT22;39485;45.702;11.364;2023-05-14T10:42:36;14.70;99.90
53599;DHT22;39485;45.702;11.364;2023-05-14T10:45:06;14.70;99.90
53599;DHT22;39485;45.702;11.364;2023-05-14T10:47:35;14.70;99.90
53599;DHT22;39485;45.702;11.364;2023-05-14T10:50:05;14.60;99.90
53599;DHT22;39485;45.702;11.364;2023-05-14T10:52:32;14.60;99.90
53599;DHT22;39485;45.702;11.364;2023-05-14T10:55:01;14.60;99.90
53599;DHT22;39485;45.702;11.364;2023-05-14T10:57:29;14.60;99.90
53599;DHT22;39485;45.702;11.364;2023-05-14T10:59:58;14.70;99.90
53599;DHT22;39485;45.702;11.364;2023-05-14T11:02:29;14.60;99.90
53599;DHT22;39485;45.702;11.364;2023-05-14T11:07:33;14.70;99.90
53599;DHT22;39485;45.702;11.364;2023-05-14T11:10:04;14.70;99.90
53599;DHT22;39485;45.702;11.364;2023-05-14T11:12:34;14.70;99.90
53599;DHT22;39485;45.702;11.364;2023-05-14T11:15:04;14.70;99.90
53599;DHT22;39485;45.702;11.364;2023-05-14T11:17:30;14.70;99.90
53599;DHT22;39485;45.702;11.364;2023-05-14T11:19:57;14.70;99.90
53599;DHT22;39485;45.702;11.364;2023-05-14T11:22:26;14.70;99.90
53599;DHT22;39485;45.702;11.364;2023-05-14T11:24:51;14.70;99.90
53599;DHT22;39485;45.702;11.364;2023-05-14T11:27:18;14.70;99.90
53599;DHT22;39485;45.702;11.364;2023-05-14T11:29:47;14.60;99.90
53599;DHT22;39485;45.702;11.364;2023-05-14T11:32:14;14.60;99.90
53599;DHT22;39485;45.702;11.364;2023-05-14T11:34:41;14.60;99.90
53599;DHT22;39485;45.702;11.364;2023-05-14T11:37:07;14.50;99.90
53599;DHT22;39485;45.702;11.364;2023-05-14T11:39:36;14.50;99.90
53599;DHT22;39485;45.702;11.364;2023-05-14T11:42:09;14.50;99.90
53599;DHT22;39485;45.702;11.364;2023-05-14T11:44:40;14.50;99.90
53599;DHT22;39485;45.702;11.364;2023-05-14T11:47:06;14.50;99.90
53599;DHT22;39485;45.702;11.364;2023-05-14T11:49:32;14.50;99.90
53599;DHT22;39485;45.702;11.364;2023-05-14T11:52:05;14.50;99.90
53599;DHT22;39485;45.702;11.364;2023-05-14T11:54:33;14.40;99.90
53599;DHT22;39485;45.702;11.364;2023-05-14T11:57:01;14.50;99.90
53599;DHT22;39485;45.702;11.364;2023-05-14T11:59:30;14.50;99.90
53599;DHT22;39485;45.702;11.364;2023-05-14T12:02:01;14.50;99.90
53599;DHT22;39485;45.702;11.364;2023-05-14T12:04:28;14.50;99.90
53599;DHT22;39485;45.702;11.364;2023-05-14T12:06:54;14.60;99.90
53599;DHT22;39485;45.702;11.364;2023-05-14T12:09:21;14.50;99.90
53599;DHT22;39485;45.702;11.364;2023-05-14T12:11:49;14.60;99.90
53599;DHT22;39485;45.702;11.364;2023-05-14T12:14:17;14.60;99.90
53599;DHT22;39485;45.702;11.364;2023-05-14T12:16:43;14.60;99.90
53599;DHT22;39485;45.702;11.364;2023-05-14T12:19:10;14.60;99.90
53599;DHT22;39485;45.702;11.364;2023-05-14T12:21:39;14.60;99.90
53599;DHT22;39485;45.702;11.364;2023-05-14T12:24:15;14.60;99.90
53599;DHT22;39485;45.702;11.364;2023-05-14T12:26:49;14.70;99.90
53599;DHT22;39485;45.702;11.364;2023-05-14T12:29:16;14.70;99.90
53599;DHT22;39485;45.702;11.364;2023-05-14T12:31:49;14.70;99.90
53599;DHT22;39485;45.702;11.364;2023-05-14T12:34:15;14.70;99.90
53599;DHT22;39485;45.702;11.364;2023-05-14T12:36:42;14.70;99.90
53599;DHT22;39485;45.702;11.364;2023-05-14T12:39:08;14.80;99.90
53599;DHT22;39485;45.702;11.364;2023-05-14T12:41:35;14.80;99.90
53599;DHT22;39485;45.702;11.364;2023-05-14T12:44:03;14.90;99.90
53599;DHT22;39485;45.702;11.364;2023-05-14T12:46:29;14.90;99.90
53599;DHT22;39485;45.702;11.364;2023-05-14T12:48:55;15.00;99.90
53599;DHT22;39485;45.702;11.364;2023-05-14T12:51:22;15.00;99.90
53599;DHT22;39485;45.702;11.364;2023-05-14T12:53:47;15.00;99.90
53599;DHT22;39485;45.702;11.364;2023-05-14T12:56:14;15.00;99.90
53599;DHT22;39485;45.702;11.364;2023-05-14T12:58:40;15.00;99.90
53599;DHT22;39485;45.702;11.364;2023-05-14T13:01:06;15.10;99.90
53599;DHT22;39485;45.702;11.364;2023-05-14T13:03:32;15.10;99.90
53599;DHT22;39485;45.702;11.364;2023-05-14T13:05:58;15.10;99.90
53599;DHT22;39485;45.702;11.364;2023-05-14T13:08:25;15.10;99.90
53599;DHT22;39485;45.702;11.364;2023-05-14T13:10:52;15.20;99.90
53599;DHT22;39485;45.702;11.364;2023-05-14T13:13:17;15.20;99.90
53599;DHT22;39485;45.702;11.364;2023-05-14T13:15:43;15.20;99.90
53599;DHT22;39485;45.702;11.364;2023-05-14T13:18:14;15.20;99.90
53599;DHT22;39485;45.702;11.364;2023-05-14T13:20:40;15.10;99.90
53599;DHT22;39485;45.702;11.364;2023-05-14T13:23:06;15.10;99.90
53599;DHT22;39485;45.702;11.364;2023-05-14T13:25:34;15.00;99.90
53599;DHT22;39485;45.702;11.364;2023-05-14T13:28:00;15.00;99.90
53599;DHT22;39485;45.702;11.364;2023-05-14T13:30:26;15.00;99.90
53599;DHT22;39485;45.702;11.364;2023-05-14T13:32:51;15.00;99.90
53599;DHT22;39485;45.702;11.364;2023-05-14T13:35:17;14.90;99.90
53599;DHT22;39485;45.702;11.364;2023-05-14T13:37:43;14.90;99.90
53599;DHT22;39485;45.702;11.364;2023-05-14T13:40:09;14.80;99.90
53599;DHT22;39485;45.702;11.364;2023-05-14T13:42:36;14.80;99.90
53599;DHT22;39485;45.702;11.364;2023-05-14T13:45:02;14.80;99.90
53599;DHT22;39485;45.702;11.364;2023-05-14T13:47:28;14.80;99.90
53599;DHT22;39485;45.702;11.364;2023-05-14T13:49:54;14.80;99.90
53599;DHT22;39485;45.702;11.364;2023-05-14T13:52:21;14.80;99.90
53599;DHT22;39485;45.702;11.364;2023-05-14T13:54:47;14.80;99.90
53599;DHT22;39485;45.702;11.364;2023-05-14T13:57:13;14.80;99.90
53599;DHT22;39485;45.702;11.364;2023-05-14T13:59:39;14.70;99.90
53599;DHT22;39485;45.702;11.364;2023-05-14T14:02:04;14.70;99.90
53599;DHT22;39485;45.702;11.364;2023-05-14T14:04:30;14.60;99.90
53599;DHT22;39485;45.702;11.364;2023-05-14T14:06:56;14.60;99.90
53599;DHT22;39485;45.702;11.364;2023-05-14T14:09:22;14.60;99.90
53599;DHT22;39485;45.702;11.364;2023-05-14T14:11:48;14.60;99.90
53599;DHT22;39485;45.702;11.364;2023-05-14T14:14:14;14.50;99.90
53599;DHT22;39485;45.702;11.364;2023-05-14T14:16:40;14.50;99.90
53599;DHT22;39485;45.702;11.364;2023-05-14T14:19:06;14.40;99.90
53599;DHT22;39485;45.702;11.364;2023-05-14T14:21:31;14.40;99.90
53599;DHT22;39485;45.702;11.364;2023-05-14T14:23:58;14.40;99.90
53599;DHT22;39485;45.702;11.364;2023-05-14T14:26:24;14.40;99.90
53599;DHT22;39485;45.702;11.364;2023-05-14T14:28:49;14.40;99.90
53599;DHT22;39485;45.702;11.364;2023-05-14T14:31:15;14.60;99.90
53599;DHT22;39485;45.702;11.364;2023-05-14T14:33:41;14.60;99.90
53599;DHT22;39485;45.702;11.364;2023-05-14T14:36:07;14.60;99.90
53599;DHT22;39485;45.702;11.364;2023-05-14T14:38:33;14.60;99.90
53599;DHT22;39485;45.702;11.364;2023-05-14T14:40:59;14.50;99.90
53599;DHT22;39485;45.702;11.364;2023-05-14T14:43:27;14.50;99.90
53599;DHT22;39485;45.702;11.364;2023-05-14T14:45:53;14.40;99.90
53599;DHT22;39485;45.702;11.364;2023-05-14T14:50:47;14.20;99.90
53599;DHT22;39485;45.702;11.364;2023-05-14T14:53:13;14.20;99.90
53599;DHT22;39485;45.702;11.364;2023-05-14T14:55:38;14.10;99.90
53599;DHT22;39485;45.702;11.364;2023-05-14T14:58:04;14.00;99.90
53599;DHT22;39485;45.702;11.364;2023-05-14T15:00:30;14.00;99.90
53599;DHT22;39485;45.702;11.364;2023-05-14T15:02:56;13.90;99.90
53599;DHT22;39485;45.702;11.364;2023-05-14T15:05:22;13.90;99.90
53599;DHT22;39485;45.702;11.364;2023-05-14T15:07:47;13.90;99.90
53599;DHT22;39485;45.702;11.364;2023-05-14T15:10:13;13.80;99.90
53599;DHT22;39485;45.702;11.364;2023-05-14T15:12:39;13.80;99.90
53599;DHT22;39485;45.702;11.364;2023-05-14T15:15:05;13.70;99.90
53599;DHT22;39485;45.702;11.364;2023-05-14T15:17:31;13.70;99.90
53599;DHT22;39485;45.702;11.364;2023-05-14T15:19:56;13.60;99.90
53599;DHT22;39485;45.702;11.364;2023-05-14T15:22:22;13.60;99.90
53599;DHT22;39485;45.702;11.364;2023-05-14T15:24:48;13.50;99.90
53599;DHT22;39485;45.702;11.364;2023-05-14T15:27:13;13.50;99.90